createdAt,value
2023-03-18T00:01:09.020Z,6.03
2023-03-18T00:03:38.559Z,7.43
2023-03-18T00:06:10.563Z,7.10
2023-03-18T00:08:40.997Z,6.68
2023-03-18T00:11:10.095Z,7.00
2023-03-18T00:13:38.478Z,8.38
2023-03-18T00:16:07.765Z,7.25
2023-03-18T00:18:35.752Z,7.18
2023-03-18T00:21:04.548Z,7.68
2023-03-18T00:23:34.530Z,7.70
2023-03-18T00:26:03.971Z,7.38
2023-03-18T00:28:32.684Z,7.00
2023-03-18T00:31:08.718Z,8.57
2023-03-18T00:33:38.116Z,8.73
2023-03-18T00:36:10.218Z,9.13
2023-03-18T00:38:39.583Z,8.48
2023-03-18T00:41:12.161Z,9.05
2023-03-18T00:43:47.303Z,8.65
2023-03-18T00:46:17.926Z,7.85
2023-03-18T00:48:46.532Z,8.32
2023-03-18T00:51:17.104Z,8.18
2023-03-18T00:53:48.128Z,8.45
2023-03-18T00:56:18.213Z,8.32
2023-03-18T00:58:46.860Z,8.95
2023-03-18T01:01:15.418Z,8.68
2023-03-18T01:03:44.104Z,8.50
2023-03-18T01:06:13.597Z,8.93
2023-03-18T01:08:42.464Z,8.60
2023-03-18T01:11:12.441Z,9.20
2023-03-18T01:13:40.722Z,8.70
2023-03-18T01:16:09.708Z,10.32
2023-03-18T01:18:38.471Z,10.45
2023-03-18T01:21:06.761Z,9.23
2023-03-18T01:23:39.344Z,8.73
2023-03-18T01:26:08.511Z,9.63
2023-03-18T01:28:39.399Z,8.98
2023-03-18T01:31:08.253Z,8.45
2023-03-18T01:33:36.866Z,8.82
2023-03-18T01:36:06.017Z,8.88
2023-03-18T01:38:34.572Z,8.75
2023-03-18T01:41:11.120Z,8.85
2023-03-18T01:43:42.731Z,9.07
2023-03-18T01:46:32.100Z,9.07
2023-03-18T01:49:02.395Z,8.75
2023-03-18T01:51:31.215Z,8.30
2023-03-18T01:54:01.754Z,9.20
2023-03-18T01:56:30.133Z,9.02
2023-03-18T01:58:59.731Z,8.25
2023-03-18T02:01:32.177Z,8.20
2023-03-18T02:04:04.123Z,8.98
2023-03-18T02:06:33.455Z,8.30
2023-03-18T02:09:03.013Z,8.75
2023-03-18T02:11:32.770Z,8.55
2023-03-18T02:14:04.330Z,9.25
2023-03-18T02:16:35.770Z,8.95
2023-03-18T02:19:09.652Z,9.95
2023-03-18T02:21:45.380Z,8.75
2023-03-18T02:24:21.444Z,9.48
2023-03-18T02:26:54.924Z,8.65
2023-03-18T02:29:32.459Z,9.13
2023-03-18T02:32:07.263Z,10.25
2023-03-18T02:34:36.327Z,9.50
2023-03-18T02:37:04.326Z,9.95
2023-03-18T02:39:32.535Z,9.63
2023-03-18T02:42:01.283Z,9.57
2023-03-18T02:44:31.946Z,10.00
2023-03-18T02:47:34.851Z,9.07
2023-03-18T02:50:03.002Z,10.30
2023-03-18T02:52:30.911Z,9.52
2023-03-18T02:54:59.537Z,9.25
2023-03-18T02:57:29.233Z,9.90
2023-03-18T02:59:59.917Z,10.63
2023-03-18T03:02:28.306Z,9.48
2023-03-18T03:04:56.472Z,9.75
2023-03-18T03:07:27.661Z,10.32
2023-03-18T03:09:58.006Z,9.67
2023-03-18T03:12:26.605Z,9.57
2023-03-18T03:14:59.326Z,10.30
2023-03-18T03:17:29.452Z,9.95
2023-03-18T03:19:57.959Z,10.38
2023-03-18T03:22:27.115Z,10.30
2023-03-18T03:24:55.123Z,10.23
2023-03-18T03:27:23.164Z,9.63
2023-03-18T03:29:51.116Z,10.35
2023-03-18T03:32:22.809Z,10.07
2023-03-18T03:34:51.278Z,9.63
2023-03-18T03:37:19.146Z,10.02
2023-03-18T03:39:49.143Z,9.88
2023-03-18T03:42:17.045Z,9.57
2023-03-18T03:44:47.480Z,9.80
2023-03-18T03:47:15.434Z,10.55
2023-03-18T03:49:44.999Z,9.65
2023-03-18T03:52:13.819Z,10.25
2023-03-18T03:54:45.132Z,10.45
2023-03-18T03:57:13.752Z,10.07
2023-03-18T03:59:41.668Z,10.60
2023-03-18T04:02:23.858Z,10.55
2023-03-18T04:04:53.608Z,11.13
2023-03-18T04:09:56.083Z,10.85
2023-03-18T04:12:24.000Z,10.60
2023-03-18T04:14:57.547Z,11.63
2023-03-18T04:17:25.664Z,10.27
2023-03-18T04:19:55.607Z,11.43
2023-03-18T04:22:29.655Z,11.18
2023-03-18T04:24:57.873Z,11.70
2023-03-18T04:27:26.862Z,12.05
2023-03-18T04:29:55.377Z,11.73
2023-03-18T04:32:28.017Z,11.40
2023-03-18T04:34:57.768Z,10.70
2023-03-18T04:37:25.634Z,10.77
2023-03-18T04:39:56.881Z,12.00
2023-03-18T04:42:25.102Z,11.63
2023-03-18T04:44:53.638Z,11.63
2023-03-18T04:47:21.815Z,12.00
2023-03-18T04:49:51.800Z,11.90
2023-03-18T04:52:21.617Z,12.55
2023-03-18T04:54:50.301Z,12.48
2023-03-18T04:57:19.825Z,12.45
2023-03-18T04:59:54.259Z,12.80
2023-03-18T05:02:22.532Z,12.15
2023-03-18T05:04:50.415Z,13.07
2023-03-18T05:07:18.817Z,13.45
2023-03-18T05:09:57.596Z,13.15
2023-03-18T05:12:26.674Z,13.63
2023-03-18T05:14:54.918Z,13.48
2023-03-18T05:17:22.887Z,13.77
2023-03-18T05:19:57.582Z,13.57
2023-03-18T05:22:26.425Z,13.15
2023-03-18T05:25:03.592Z,14.27
2023-03-18T05:27:32.010Z,13.48
2023-03-18T05:30:05.044Z,13.68
2023-03-18T05:32:40.863Z,14.75
2023-03-18T05:35:11.623Z,14.50
2023-03-18T05:37:49.706Z,13.65
2023-03-18T05:40:19.549Z,14.10
2023-03-18T05:43:03.488Z,14.18
2023-03-18T05:45:40.320Z,13.90
2023-03-18T05:48:11.802Z,15.10
2023-03-18T05:50:48.956Z,15.88
2023-03-18T05:53:20.812Z,14.70
2023-03-18T05:55:54.365Z,15.82
2023-03-18T05:58:22.597Z,16.60
2023-03-18T06:00:56.205Z,15.40
2023-03-18T06:03:25.366Z,16.10
2023-03-18T06:05:53.974Z,16.23
2023-03-18T06:08:22.498Z,17.95
2023-03-18T06:10:50.709Z,17.08
2023-03-18T06:13:20.192Z,16.00
2023-03-18T06:15:48.873Z,16.55
2023-03-18T06:18:17.714Z,16.35
2023-03-18T06:20:45.982Z,16.02
2023-03-18T06:23:14.921Z,17.27
2023-03-18T06:25:43.292Z,16.92
2023-03-18T06:28:11.837Z,17.73
2023-03-18T06:30:41.546Z,17.00
2023-03-18T06:33:12.445Z,17.05
2023-03-18T06:35:40.605Z,16.83
2023-03-18T06:38:10.740Z,16.73
2023-03-18T06:40:39.868Z,18.05
2023-03-18T06:43:09.152Z,17.13
2023-03-18T06:45:39.382Z,16.33
2023-03-18T06:48:11.964Z,18.75
2023-03-18T06:50:43.220Z,17.20
2023-03-18T06:53:21.003Z,17.40
2023-03-18T06:55:50.105Z,17.35
2023-03-18T06:58:21.445Z,19.05
2023-03-18T07:01:00.475Z,16.67
2023-03-18T07:03:35.913Z,18.25
2023-03-18T07:06:04.642Z,18.92
2023-03-18T07:08:33.516Z,18.02
2023-03-18T07:11:03.832Z,17.90
2023-03-18T07:13:32.678Z,17.75
2023-03-18T07:16:00.620Z,18.25
2023-03-18T07:18:28.960Z,19.42
2023-03-18T07:20:58.785Z,18.10
2023-03-18T07:23:28.121Z,18.92
2023-03-18T07:25:58.872Z,20.08
2023-03-18T07:28:27.030Z,18.65
2023-03-18T07:30:55.231Z,19.10
2023-03-18T07:33:23.947Z,18.83
2023-03-18T07:35:51.920Z,18.67
2023-03-18T07:38:21.276Z,19.77
2023-03-18T07:40:49.892Z,18.67
2023-03-18T07:43:18.762Z,19.08
2023-03-18T07:45:46.798Z,19.77
2023-03-18T07:48:14.642Z,18.40
2023-03-18T07:50:42.976Z,18.20
2023-03-18T07:53:11.457Z,17.25
2023-03-18T07:55:41.244Z,18.27
2023-03-18T07:58:09.710Z,17.92
2023-03-18T08:00:38.016Z,17.80
2023-03-18T08:03:07.266Z,17.10
2023-03-18T08:05:35.369Z,16.48
2023-03-18T08:08:04.472Z,17.33
2023-03-18T08:10:32.722Z,17.02
2023-03-18T08:13:01.951Z,15.25
2023-03-18T08:15:30.342Z,15.68
2023-03-18T08:17:58.356Z,15.45
2023-03-18T08:20:27.304Z,15.57
2023-03-18T08:22:56.035Z,14.95
2023-03-18T08:25:24.177Z,15.20
2023-03-18T08:27:52.608Z,16.20
2023-03-18T08:30:25.416Z,15.65
2023-03-18T08:32:53.867Z,15.55
2023-03-18T08:35:22.404Z,15.75
2023-03-18T08:37:51.422Z,15.43
2023-03-18T08:40:20.491Z,16.05
2023-03-18T08:42:48.445Z,15.55
2023-03-18T08:45:17.158Z,15.82
2023-03-18T08:47:46.392Z,15.55
2023-03-18T08:50:14.498Z,15.15
2023-03-18T08:52:42.378Z,15.18
2023-03-18T08:55:10.757Z,15.15
2023-03-18T08:57:39.088Z,12.80
2023-03-18T09:00:08.142Z,13.27
2023-03-18T09:02:36.614Z,13.75
2023-03-18T09:05:07.089Z,13.07
2023-03-18T09:07:35.302Z,14.35
2023-03-18T09:10:04.490Z,13.57
2023-03-18T09:12:32.554Z,13.48
2023-03-18T09:15:00.433Z,13.60
2023-03-18T09:17:45.267Z,13.68
2023-03-18T09:20:19.860Z,13.75
2023-03-18T09:22:48.147Z,13.07
2023-03-18T09:25:16.749Z,14.77
2023-03-18T09:27:45.922Z,13.52
2023-03-18T09:30:15.498Z,14.10
2023-03-18T09:32:43.488Z,13.68
2023-03-18T09:35:13.338Z,13.55
2023-03-18T09:37:42.644Z,13.70
2023-03-18T09:40:19.448Z,12.30
2023-03-18T09:42:56.588Z,13.43
2023-03-18T09:45:27.683Z,11.90
2023-03-18T09:48:04.755Z,12.23
2023-03-18T09:50:39.365Z,11.93
2023-03-18T09:53:15.568Z,28.13
2023-03-18T09:55:47.011Z,13.95
2023-03-18T09:58:22.712Z,11.05
2023-03-18T10:00:53.541Z,9.73
2023-03-18T10:03:29.817Z,10.02
2023-03-18T10:06:02.285Z,8.85
2023-03-18T10:08:43.060Z,8.85
2023-03-18T10:11:18.729Z,8.15
2023-03-18T10:13:53.645Z,7.85
2023-03-18T10:16:23.661Z,8.02
2023-03-18T10:18:51.882Z,8.85
2023-03-18T10:21:28.401Z,7.90
2023-03-18T10:24:02.937Z,9.30
2023-03-18T10:26:34.344Z,8.40
2023-03-18T10:29:08.796Z,7.65
2023-03-18T10:31:43.325Z,8.13
2023-03-18T10:34:13.352Z,8.27
2023-03-18T10:36:50.349Z,8.03
2023-03-18T10:39:23.001Z,7.72
2023-03-18T10:41:51.691Z,7.70
2023-03-18T10:44:24.877Z,7.50
2023-03-18T10:46:58.688Z,7.77
2023-03-18T10:49:29.142Z,8.50
2023-03-18T10:52:00.765Z,7.03
2023-03-18T10:54:33.692Z,6.63
2023-03-18T10:57:02.069Z,7.03
2023-03-18T10:59:30.836Z,6.35
2023-03-18T11:02:04.565Z,7.05
2023-03-18T11:04:38.103Z,6.50
2023-03-18T11:07:09.382Z,6.10
2023-03-18T11:09:43.498Z,6.80
2023-03-18T11:12:19.357Z,6.25
2023-03-18T11:14:53.562Z,6.70
2023-03-18T11:17:24.051Z,7.15
2023-03-18T11:20:02.876Z,6.40
2023-03-18T11:22:32.237Z,6.20
2023-03-18T11:25:13.504Z,5.82
2023-03-18T11:27:43.042Z,5.22
2023-03-18T11:30:33.218Z,5.15
2023-03-18T11:33:07.335Z,5.68
2023-03-18T11:35:41.947Z,5.65
2023-03-18T11:38:16.373Z,5.68
2023-03-18T11:40:46.435Z,4.85
2023-03-18T11:43:19.907Z,4.78
2023-03-18T11:45:51.344Z,5.53
2023-03-18T11:48:30.801Z,5.63
2023-03-18T11:51:07.729Z,5.35
2023-03-18T11:53:47.581Z,5.13
2023-03-18T11:56:24.070Z,5.30
2023-03-18T11:59:21.117Z,5.25
2023-03-18T12:01:56.956Z,5.28
2023-03-18T12:04:34.186Z,5.40
2023-03-18T12:07:17.925Z,5.57
2023-03-18T12:09:53.525Z,5.07
2023-03-18T12:12:37.399Z,4.22
2023-03-18T12:15:11.981Z,4.53
2023-03-18T12:17:47.260Z,4.65
2023-03-18T12:20:43.626Z,3.95
2023-03-18T12:23:19.840Z,5.15
2023-03-18T12:25:58.613Z,4.78
2023-03-18T12:28:36.216Z,4.38
2023-03-18T12:31:30.371Z,4.97
2023-03-18T12:34:01.475Z,4.97
2023-03-18T12:36:39.820Z,4.35
2023-03-18T12:39:42.006Z,3.95
2023-03-18T12:42:12.439Z,4.07
2023-03-18T12:44:58.910Z,3.75
2023-03-18T12:47:31.852Z,3.67
2023-03-18T12:50:02.153Z,4.30
2023-03-18T12:52:34.022Z,4.00
2023-03-18T12:55:06.196Z,4.45
2023-03-18T12:57:40.168Z,4.75
2023-03-18T13:00:19.527Z,4.05
2023-03-18T13:02:54.203Z,4.93
2023-03-18T13:05:29.485Z,4.65
2023-03-18T13:08:17.684Z,4.70
2023-03-18T13:10:50.158Z,4.47
2023-03-18T13:13:18.304Z,4.60
2023-03-18T13:15:50.663Z,4.13
2023-03-18T13:18:21.296Z,4.10
2023-03-18T13:20:50.388Z,4.72
2023-03-18T13:23:28.455Z,4.95
2023-03-18T13:26:04.197Z,3.80
2023-03-18T13:28:44.038Z,3.17
2023-03-18T13:31:21.217Z,3.60
2023-03-18T13:34:27.533Z,3.53
2023-03-18T13:37:16.011Z,3.88
2023-03-18T13:40:05.757Z,3.75
2023-03-18T13:42:36.137Z,3.90
2023-03-18T13:45:07.704Z,3.58
2023-03-18T13:47:40.017Z,3.70
2023-03-18T13:50:27.127Z,3.63
2023-03-18T13:52:57.610Z,3.38
2023-03-18T13:55:28.825Z,4.90
2023-03-18T13:57:58.448Z,3.75
2023-03-18T14:00:34.530Z,4.07
2023-03-18T14:03:17.580Z,3.72
2023-03-18T14:05:47.059Z,3.85
2023-03-18T14:08:43.275Z,4.57
2023-03-18T14:11:49.173Z,3.83
2023-03-18T14:14:43.758Z,3.67
2023-03-18T14:17:23.115Z,3.50
2023-03-18T14:19:55.673Z,4.07
2023-03-18T14:22:27.799Z,4.18
2023-03-18T14:25:20.823Z,3.97
2023-03-18T14:27:50.593Z,4.70
2023-03-18T14:30:55.809Z,4.03
2023-03-18T14:33:48.696Z,3.80
2023-03-18T14:36:18.864Z,3.92
2023-03-18T14:38:50.878Z,3.83
2023-03-18T14:41:23.758Z,3.72
2023-03-18T14:43:58.771Z,4.63
2023-03-18T14:46:33.073Z,4.00
2023-03-18T14:49:01.122Z,4.32
2023-03-18T14:51:32.656Z,5.10
2023-03-18T14:54:05.205Z,4.10
2023-03-18T14:56:38.896Z,4.28
2023-03-18T14:59:08.045Z,4.35
2023-03-18T15:01:37.872Z,4.40
2023-03-18T15:04:07.124Z,4.00
2023-03-18T15:06:36.694Z,4.90
2023-03-18T15:09:08.515Z,4.25
2023-03-18T15:11:39.763Z,4.45
2023-03-18T15:14:13.189Z,4.40
2023-03-18T15:16:41.217Z,4.10
2023-03-18T15:19:12.772Z,3.78
2023-03-18T15:21:42.200Z,3.97
2023-03-18T15:24:10.621Z,3.22
2023-03-18T15:26:40.105Z,3.85
2023-03-18T15:29:25.978Z,2.83
2023-03-18T15:31:54.072Z,2.55
2023-03-18T15:34:23.554Z,2.10
2023-03-18T15:36:56.705Z,1.73
2023-03-18T15:39:34.084Z,2.10
2023-03-18T15:42:03.232Z,2.08
2023-03-18T15:44:32.882Z,1.88
2023-03-18T15:47:13.641Z,2.38
2023-03-18T15:49:50.646Z,2.70
2023-03-18T15:52:22.344Z,2.83
2023-03-18T15:54:50.732Z,2.35
2023-03-18T15:57:25.412Z,2.47
2023-03-18T15:59:54.645Z,2.42
2023-03-18T16:02:22.749Z,2.35
2023-03-18T16:04:50.860Z,2.42
2023-03-18T16:07:24.589Z,2.40
2023-03-18T16:09:54.520Z,2.80
2023-03-18T16:12:23.845Z,2.50
2023-03-18T16:14:53.150Z,2.33
2023-03-18T16:17:22.281Z,2.50
2023-03-18T16:19:54.390Z,2.30
2023-03-18T16:22:24.031Z,2.58
2023-03-18T16:24:51.954Z,2.40
2023-03-18T16:27:29.430Z,2.30
2023-03-18T16:29:57.468Z,2.00
2023-03-18T16:32:25.435Z,2.15
2023-03-18T16:34:53.797Z,2.20
2023-03-18T16:37:26.167Z,2.15
2023-03-18T16:39:55.181Z,2.40
2023-03-18T16:42:24.447Z,1.80
2023-03-18T16:44:52.717Z,2.00
2023-03-18T16:47:22.969Z,2.15
2023-03-18T16:49:52.454Z,2.10
2023-03-18T16:52:20.902Z,1.77
2023-03-18T16:54:50.130Z,2.10
2023-03-18T16:57:19.985Z,2.17
2023-03-18T16:59:50.715Z,2.10
2023-03-18T17:02:31.084Z,2.05
2023-03-18T17:04:59.248Z,2.85
2023-03-18T17:07:28.806Z,2.42
2023-03-18T17:09:58.135Z,2.20
2023-03-18T17:12:26.239Z,2.30
2023-03-18T17:14:56.203Z,2.47
2023-03-18T17:17:28.064Z,2.65
2023-03-18T17:19:56.993Z,2.30
2023-03-18T17:22:27.101Z,2.45
2023-03-18T17:24:55.458Z,2.75
2023-03-18T17:27:26.696Z,2.60
2023-03-18T17:29:57.198Z,2.60
2023-03-18T17:32:26.109Z,2.40
2023-03-18T17:34:54.814Z,2.72
2023-03-18T17:37:23.621Z,2.72
2023-03-18T17:39:51.728Z,3.40
2023-03-18T17:42:30.377Z,2.75
2023-03-18T17:45:01.915Z,3.38
2023-03-18T17:47:29.898Z,3.30
2023-03-18T17:49:58.707Z,3.47
2023-03-18T17:52:27.311Z,3.47
2023-03-18T17:54:55.756Z,3.10
2023-03-18T17:57:24.370Z,3.40
2023-03-18T17:59:54.180Z,3.53
2023-03-18T18:02:22.166Z,3.58
2023-03-18T18:04:50.199Z,3.15
2023-03-18T18:07:20.055Z,3.50
2023-03-18T18:09:49.239Z,3.13
2023-03-18T18:12:21.610Z,3.03
2023-03-18T18:14:50.159Z,2.90
2023-03-18T18:17:19.328Z,3.47
2023-03-18T18:19:47.672Z,4.40
2023-03-18T18:22:18.010Z,3.70
2023-03-18T18:24:47.020Z,4.50
2023-03-18T18:27:15.743Z,4.75
2023-03-18T18:29:45.950Z,5.40
2023-03-18T18:32:15.649Z,5.43
2023-03-18T18:34:45.317Z,5.80
2023-03-18T18:37:13.531Z,5.38
2023-03-18T18:39:42.534Z,5.97
2023-03-18T18:42:12.479Z,5.47
2023-03-18T18:44:40.554Z,5.13
2023-03-18T18:47:18.168Z,5.65
2023-03-18T18:49:47.982Z,5.13
2023-03-18T18:52:15.823Z,5.55
2023-03-18T18:54:43.925Z,4.55
2023-03-18T18:57:24.659Z,4.53
2023-03-18T18:59:52.984Z,4.85
2023-03-18T19:02:32.386Z,4.90
2023-03-18T19:05:04.637Z,5.82
2023-03-18T19:07:34.171Z,5.32
2023-03-18T19:10:02.017Z,5.68
2023-03-18T19:12:30.005Z,5.10
2023-03-18T19:14:58.093Z,4.90
2023-03-18T19:17:26.062Z,4.30
2023-03-18T19:19:54.841Z,4.00
2023-03-18T19:22:25.406Z,4.20
2023-03-18T19:24:53.345Z,3.85
2023-03-18T19:27:23.928Z,3.88
2023-03-18T19:29:52.689Z,3.58
2023-03-18T19:32:22.325Z,3.17
2023-03-18T19:34:52.699Z,3.38
2023-03-18T19:37:23.697Z,3.53
2023-03-18T19:39:53.123Z,4.07
2023-03-18T19:42:21.752Z,4.45
2023-03-18T19:44:49.724Z,4.50
2023-03-18T19:47:19.188Z,5.00
2023-03-18T19:49:47.408Z,5.85
2023-03-18T19:52:19.293Z,5.40
2023-03-18T19:54:48.087Z,4.80
2023-03-18T19:57:19.841Z,3.85
2023-03-18T19:59:50.163Z,3.53
2023-03-18T20:02:21.097Z,3.15
2023-03-18T20:04:50.215Z,3.42
2023-03-18T20:07:19.561Z,2.80
2023-03-18T20:09:47.701Z,3.28
2023-03-18T20:12:22.941Z,2.35
2023-03-18T20:14:52.647Z,2.15
2023-03-18T20:17:32.500Z,1.88
2023-03-18T20:20:00.676Z,1.85
2023-03-18T20:22:31.680Z,1.60
2023-03-18T20:24:59.908Z,1.63
2023-03-18T20:27:30.243Z,1.20
2023-03-18T20:29:58.867Z,1.17
2023-03-18T20:32:26.836Z,1.08
2023-03-18T20:34:54.723Z,1.40
2023-03-18T20:37:28.116Z,0.85
2023-03-18T20:39:56.800Z,1.10
2023-03-18T20:42:27.535Z,1.10
2023-03-18T20:44:56.905Z,1.00
2023-03-18T20:47:24.822Z,1.20
2023-03-18T20:49:54.858Z,1.40
2023-03-18T20:52:25.959Z,1.27
2023-03-18T20:54:54.246Z,1.40
2023-03-18T20:57:22.563Z,1.30
2023-03-18T20:59:51.784Z,1.00
2023-03-18T21:02:30.913Z,1.08
2023-03-18T21:05:00.163Z,0.57
2023-03-18T21:07:28.593Z,0.75
2023-03-18T21:09:56.650Z,1.00
2023-03-18T21:12:25.469Z,1.25
2023-03-18T21:14:53.908Z,1.00
2023-03-18T21:17:26.683Z,0.88
2023-03-18T21:20:05.009Z,0.73
2023-03-18T21:22:40.361Z,1.02
2023-03-18T21:25:10.988Z,1.00
2023-03-18T21:27:38.852Z,1.50
2023-03-18T21:30:09.821Z,1.33
2023-03-18T21:32:40.096Z,1.10
2023-03-18T21:35:23.284Z,1.10
2023-03-18T21:37:51.358Z,1.15
2023-03-18T21:40:21.370Z,1.23
2023-03-18T21:42:50.227Z,1.13
2023-03-18T21:45:20.747Z,1.30
2023-03-18T21:47:48.576Z,1.20
2023-03-18T21:50:22.538Z,1.13
2023-03-18T21:52:50.713Z,1.27
2023-03-18T21:55:18.931Z,1.25
2023-03-18T21:57:48.816Z,1.40
2023-03-18T22:00:20.013Z,1.35
2023-03-18T22:02:48.744Z,1.60
2023-03-18T22:05:18.370Z,1.42
2023-03-18T22:07:47.851Z,1.30
2023-03-18T22:10:16.566Z,1.52
2023-03-18T22:12:44.509Z,1.17
2023-03-18T22:15:34.304Z,1.48
2023-03-18T22:18:02.384Z,1.45
2023-03-18T22:20:31.075Z,1.50
2023-03-18T22:23:00.796Z,1.45
2023-03-18T22:25:30.674Z,1.42
2023-03-18T22:27:59.441Z,1.70
2023-03-18T22:30:27.418Z,1.50
2023-03-18T22:32:56.396Z,1.60
2023-03-18T22:35:26.058Z,1.55
2023-03-18T22:37:54.561Z,1.30
2023-03-18T22:40:25.541Z,1.20
2023-03-18T22:42:55.107Z,1.27
2023-03-18T22:45:25.137Z,1.55
2023-03-18T22:47:57.445Z,1.63
2023-03-18T22:50:56.375Z,1.40
2023-03-18T22:53:27.988Z,1.17
2023-03-18T22:55:57.770Z,1.40
2023-03-18T22:58:27.772Z,1.42
2023-03-18T23:00:57.226Z,1.42
2023-03-18T23:03:28.869Z,1.40
2023-03-18T23:05:58.433Z,1.60
2023-03-18T23:08:27.593Z,1.38
2023-03-18T23:10:58.168Z,1.60
2023-03-18T23:13:29.115Z,1.45
2023-03-18T23:15:58.160Z,1.90
2023-03-18T23:18:26.448Z,1.52
2023-03-18T23:20:54.461Z,1.70
2023-03-18T23:23:22.578Z,1.50
2023-03-18T23:25:52.363Z,1.40
2023-03-18T23:28:21.775Z,1.50
2023-03-18T23:30:51.340Z,1.58
2023-03-18T23:33:19.955Z,1.50
2023-03-18T23:35:48.744Z,1.70
2023-03-18T23:38:17.180Z,1.70
2023-03-18T23:40:45.103Z,2.05
2023-03-18T23:43:12.980Z,2.15
2023-03-18T23:45:42.536Z,2.00
2023-03-18T23:48:10.489Z,2.10
2023-03-18T23:50:38.428Z,2.15
2023-03-18T23:53:06.822Z,2.10
2023-03-18T23:55:35.470Z,2.20
2023-03-18T23:58:03.818Z,1.85
